sensor_id;sensor_type;location;lat;lon;timestamp;P1;durP1;ratioP1;P2;durP2;ratioP2
3704;SDS011;1868;48.918;9.438;2023-03-21T00:01:01;3.90;;;3.53;;
3704;SDS011;1868;48.918;9.438;2023-03-21T00:03:31;4.30;;;3.40;;
3704;SDS011;1868;48.918;9.438;2023-03-21T00:06:04;4.90;;;3.93;;
3704;SDS011;1868;48.918;9.438;2023-03-21T00:08:33;4.07;;;3.70;;
3704;SDS011;1868;48.918;9.438;2023-03-21T00:11:02;6.43;;;3.53;;
3704;SDS011;1868;48.918;9.438;2023-03-21T00:13:33;3.67;;;3.37;;
3704;SDS011;1868;48.918;9.438;2023-03-21T00:16:04;3.47;;;3.13;;
3704;SDS011;1868;48.918;9.438;2023-03-21T00:18:56;3.50;;;3.20;;
3704;SDS011;1868;48.918;9.438;2023-03-21T00:21:24;6.40;;;3.07;;
3704;SDS011;1868;48.918;9.438;2023-03-21T00:24:14;4.50;;;3.30;;
3704;SDS011;1868;48.918;9.438;2023-03-21T00:26:42;3.60;;;3.30;;
3704;SDS011;1868;48.918;9.438;2023-03-21T00:29:11;4.00;;;3.63;;
3704;SDS011;1868;48.918;9.438;2023-03-21T00:31:39;3.83;;;3.10;;
3704;SDS011;1868;48.918;9.438;2023-03-21T00:34:09;5.83;;;3.70;;
3704;SDS011;1868;48.918;9.438;2023-03-21T00:36:38;4.17;;;3.70;;
3704;SDS011;1868;48.918;9.438;2023-03-21T00:39:07;7.17;;;4.43;;
3704;SDS011;1868;48.918;9.438;2023-03-21T00:41:37;5.40;;;4.70;;
3704;SDS011;1868;48.918;9.438;2023-03-21T00:44:09;7.40;;;4.43;;
3704;SDS011;1868;48.918;9.438;2023-03-21T00:46:41;4.10;;;3.70;;
3704;SDS011;1868;48.918;9.438;2023-03-21T00:49:27;4.60;;;3.80;;
3704;SDS011;1868;48.918;9.438;2023-03-21T00:52:00;5.20;;;4.23;;
3704;SDS011;1868;48.918;9.438;2023-03-21T00:54:43;3.70;;;3.17;;
3704;SDS011;1868;48.918;9.438;2023-03-21T00:57:12;3.83;;;3.43;;
3704;SDS011;1868;48.918;9.438;2023-03-21T00:59:40;3.77;;;3.47;;
3704;SDS011;1868;48.918;9.438;2023-03-21T01:02:08;4.00;;;3.57;;
3704;SDS011;1868;48.918;9.438;2023-03-21T01:04:41;4.63;;;3.03;;
3704;SDS011;1868;48.918;9.438;2023-03-21T01:07:09;3.83;;;2.97;;
3704;SDS011;1868;48.918;9.438;2023-03-21T01:09:37;4.23;;;3.80;;
3704;SDS011;1868;48.918;9.438;2023-03-21T01:12:06;5.30;;;3.60;;
3704;SDS011;1868;48.918;9.438;2023-03-21T01:14:35;3.67;;;3.37;;
3704;SDS011;1868;48.918;9.438;2023-03-21T01:17:04;6.27;;;4.10;;
3704;SDS011;1868;48.918;9.438;2023-03-21T01:19:32;3.50;;;3.23;;
3704;SDS011;1868;48.918;9.438;2023-03-21T01:22:18;5.13;;;3.87;;
3704;SDS011;1868;48.918;9.438;2023-03-21T01:24:46;3.33;;;3.13;;
3704;SDS011;1868;48.918;9.438;2023-03-21T01:27:25;3.63;;;3.33;;
3704;SDS011;1868;48.918;9.438;2023-03-21T01:29:54;4.23;;;3.23;;
3704;SDS011;1868;48.918;9.438;2023-03-21T01:32:23;4.77;;;3.40;;
3704;SDS011;1868;48.918;9.438;2023-03-21T01:34:52;5.03;;;3.43;;
3704;SDS011;1868;48.918;9.438;2023-03-21T01:37:22;4.20;;;3.90;;
3704;SDS011;1868;48.918;9.438;2023-03-21T01:39:51;5.70;;;3.90;;
3704;SDS011;1868;48.918;9.438;2023-03-21T01:42:20;3.63;;;3.30;;
3704;SDS011;1868;48.918;9.438;2023-03-21T01:44:53;3.37;;;3.10;;
3704;SDS011;1868;48.918;9.438;2023-03-21T01:47:32;5.80;;;3.60;;
3704;SDS011;1868;48.918;9.438;2023-03-21T01:50:05;3.53;;;3.23;;
3704;SDS011;1868;48.918;9.438;2023-03-21T01:52:42;5.90;;;3.77;;
3704;SDS011;1868;48.918;9.438;2023-03-21T01:55:17;4.30;;;3.73;;
3704;SDS011;1868;48.918;9.438;2023-03-21T01:57:56;4.93;;;3.43;;
3704;SDS011;1868;48.918;9.438;2023-03-21T02:01:01;4.50;;;3.70;;
3704;SDS011;1868;48.918;9.438;2023-03-21T02:03:41;4.13;;;3.33;;
3704;SDS011;1868;48.918;9.438;2023-03-21T02:06:37;8.47;;;4.40;;
3704;SDS011;1868;48.918;9.438;2023-03-21T02:09:31;5.90;;;4.90;;
3704;SDS011;1868;48.918;9.438;2023-03-21T02:12:06;5.93;;;4.20;;
3704;SDS011;1868;48.918;9.438;2023-03-21T02:14:35;4.80;;;4.20;;
3704;SDS011;1868;48.918;9.438;2023-03-21T02:17:23;6.27;;;4.07;;
3704;SDS011;1868;48.918;9.438;2023-03-21T02:20:16;6.40;;;4.30;;
3704;SDS011;1868;48.918;9.438;2023-03-21T02:23:54;5.63;;;4.00;;
3704;SDS011;1868;48.918;9.438;2023-03-21T02:27:07;5.00;;;4.10;;
3704;SDS011;1868;48.918;9.438;2023-03-21T02:29:50;4.00;;;3.70;;
3704;SDS011;1868;48.918;9.438;2023-03-21T02:33:00;6.67;;;3.70;;
3704;SDS011;1868;48.918;9.438;2023-03-21T02:35:55;6.17;;;4.47;;
3704;SDS011;1868;48.918;9.438;2023-03-21T02:38:51;6.07;;;4.40;;
3704;SDS011;1868;48.918;9.438;2023-03-21T02:41:24;5.37;;;3.63;;
3704;SDS011;1868;48.918;9.438;2023-03-21T02:44:07;6.53;;;4.63;;
3704;SDS011;1868;48.918;9.438;2023-03-21T02:46:46;5.40;;;3.73;;
3704;SDS011;1868;48.918;9.438;2023-03-21T02:49:32;9.70;;;4.40;;
3704;SDS011;1868;48.918;9.438;2023-03-21T02:52:12;9.30;;;3.80;;
3704;SDS011;1868;48.918;9.438;2023-03-21T02:55:05;6.20;;;4.20;;
3704;SDS011;1868;48.918;9.438;2023-03-21T02:57:47;5.70;;;4.13;;
3704;SDS011;1868;48.918;9.438;2023-03-21T03:00:19;5.60;;;4.10;;
3704;SDS011;1868;48.918;9.438;2023-03-21T03:02:50;5.23;;;3.80;;
3704;SDS011;1868;48.918;9.438;2023-03-21T03:05:34;4.63;;;3.47;;
3704;SDS011;1868;48.918;9.438;2023-03-21T03:08:15;6.50;;;3.43;;
3704;SDS011;1868;48.918;9.438;2023-03-21T03:11:14;5.10;;;4.43;;
3704;SDS011;1868;48.918;9.438;2023-03-21T03:13:53;5.33;;;3.40;;
3704;SDS011;1868;48.918;9.438;2023-03-21T03:17:17;5.43;;;3.60;;
3704;SDS011;1868;48.918;9.438;2023-03-21T03:19:58;4.33;;;3.63;;
3704;SDS011;1868;48.918;9.438;2023-03-21T03:22:45;4.00;;;3.43;;
3704;SDS011;1868;48.918;9.438;2023-03-21T03:25:23;4.40;;;3.80;;
3704;SDS011;1868;48.918;9.438;2023-03-21T03:28:11;5.50;;;3.60;;
3704;SDS011;1868;48.918;9.438;2023-03-21T03:30:42;3.47;;;3.17;;
3704;SDS011;1868;48.918;9.438;2023-03-21T03:33:35;3.77;;;3.43;;
3704;SDS011;1868;48.918;9.438;2023-03-21T03:36:08;4.10;;;3.80;;
3704;SDS011;1868;48.918;9.438;2023-03-21T03:38:57;5.00;;;4.30;;
3704;SDS011;1868;48.918;9.438;2023-03-21T03:41:32;6.07;;;3.80;;
3704;SDS011;1868;48.918;9.438;2023-03-21T03:44:33;7.70;;;4.27;;
3704;SDS011;1868;48.918;9.438;2023-03-21T03:47:05;6.20;;;4.30;;
3704;SDS011;1868;48.918;9.438;2023-03-21T03:49:45;5.20;;;3.20;;
3704;SDS011;1868;48.918;9.438;2023-03-21T03:52:20;4.60;;;4.20;;
3704;SDS011;1868;48.918;9.438;2023-03-21T03:55:01;9.63;;;4.60;;
3704;SDS011;1868;48.918;9.438;2023-03-21T03:57:35;4.03;;;3.73;;
3704;SDS011;1868;48.918;9.438;2023-03-21T04:00:08;5.10;;;3.93;;
3704;SDS011;1868;48.918;9.438;2023-03-21T04:02:46;6.93;;;3.67;;
3704;SDS011;1868;48.918;9.438;2023-03-21T04:05:18;3.50;;;3.20;;
3704;SDS011;1868;48.918;9.438;2023-03-21T04:07:47;6.27;;;3.90;;
3704;SDS011;1868;48.918;9.438;2023-03-21T04:10:20;4.63;;;3.67;;
3704;SDS011;1868;48.918;9.438;2023-03-21T04:12:48;8.03;;;3.30;;
3704;SDS011;1868;48.918;9.438;2023-03-21T04:15:27;6.40;;;4.27;;
3704;SDS011;1868;48.918;9.438;2023-03-21T04:18:02;4.77;;;4.37;;
3704;SDS011;1868;48.918;9.438;2023-03-21T04:20:31;4.73;;;4.17;;
3704;SDS011;1868;48.918;9.438;2023-03-21T04:23:03;3.80;;;3.50;;
3704;SDS011;1868;48.918;9.438;2023-03-21T04:25:32;4.30;;;3.30;;
3704;SDS011;1868;48.918;9.438;2023-03-21T04:28:04;4.00;;;3.03;;
3704;SDS011;1868;48.918;9.438;2023-03-21T04:30:44;5.90;;;4.07;;
3704;SDS011;1868;48.918;9.438;2023-03-21T04:33:36;4.43;;;3.50;;
3704;SDS011;1868;48.918;9.438;2023-03-21T04:36:05;4.80;;;3.77;;
3704;SDS011;1868;48.918;9.438;2023-03-21T04:38:36;4.67;;;3.80;;
3704;SDS011;1868;48.918;9.438;2023-03-21T04:41:05;11.07;;;4.13;;
3704;SDS011;1868;48.918;9.438;2023-03-21T04:43:33;4.13;;;3.47;;
3704;SDS011;1868;48.918;9.438;2023-03-21T04:46:03;5.27;;;3.90;;
3704;SDS011;1868;48.918;9.438;2023-03-21T04:48:31;5.93;;;3.57;;
3704;SDS011;1868;48.918;9.438;2023-03-21T04:51:00;5.50;;;3.83;;
3704;SDS011;1868;48.918;9.438;2023-03-21T04:53:29;5.90;;;4.63;;
3704;SDS011;1868;48.918;9.438;2023-03-21T04:55:57;4.53;;;3.67;;
3704;SDS011;1868;48.918;9.438;2023-03-21T04:58:26;4.03;;;3.57;;
3704;SDS011;1868;48.918;9.438;2023-03-21T05:00:55;4.17;;;3.77;;
3704;SDS011;1868;48.918;9.438;2023-03-21T05:03:26;4.50;;;3.00;;
3704;SDS011;1868;48.918;9.438;2023-03-21T05:05:56;4.80;;;4.23;;
3704;SDS011;1868;48.918;9.438;2023-03-21T05:08:25;5.90;;;3.50;;
3704;SDS011;1868;48.918;9.438;2023-03-21T05:10:53;6.63;;;4.10;;
3704;SDS011;1868;48.918;9.438;2023-03-21T05:13:25;10.83;;;7.40;;
3704;SDS011;1868;48.918;9.438;2023-03-21T05:15:53;12.70;;;8.60;;
3704;SDS011;1868;48.918;9.438;2023-03-21T05:18:21;8.53;;;7.63;;
3704;SDS011;1868;48.918;9.438;2023-03-21T05:21:03;10.07;;;8.43;;
3704;SDS011;1868;48.918;9.438;2023-03-21T05:23:34;8.17;;;7.30;;
3704;SDS011;1868;48.918;9.438;2023-03-21T05:26:04;8.90;;;6.73;;
3704;SDS011;1868;48.918;9.438;2023-03-21T05:28:47;7.70;;;5.60;;
3704;SDS011;1868;48.918;9.438;2023-03-21T05:31:16;8.67;;;6.10;;
3704;SDS011;1868;48.918;9.438;2023-03-21T05:33:49;7.60;;;4.97;;
3704;SDS011;1868;48.918;9.438;2023-03-21T05:36:21;5.30;;;4.27;;
3704;SDS011;1868;48.918;9.438;2023-03-21T05:38:50;4.57;;;4.17;;
3704;SDS011;1868;48.918;9.438;2023-03-21T05:41:18;5.50;;;4.13;;
3704;SDS011;1868;48.918;9.438;2023-03-21T05:43:47;6.20;;;5.60;;
3704;SDS011;1868;48.918;9.438;2023-03-21T05:46:16;5.77;;;4.67;;
3704;SDS011;1868;48.918;9.438;2023-03-21T05:48:44;5.30;;;4.80;;
3704;SDS011;1868;48.918;9.438;2023-03-21T05:51:15;5.27;;;4.60;;
3704;SDS011;1868;48.918;9.438;2023-03-21T05:53:46;5.27;;;4.60;;
3704;SDS011;1868;48.918;9.438;2023-03-21T05:56:15;5.90;;;4.47;;
3704;SDS011;1868;48.918;9.438;2023-03-21T05:58:53;5.50;;;3.90;;
3704;SDS011;1868;48.918;9.438;2023-03-21T06:01:22;4.43;;;4.03;;
3704;SDS011;1868;48.918;9.438;2023-03-21T06:03:59;7.67;;;4.27;;
3704;SDS011;1868;48.918;9.438;2023-03-21T06:06:28;4.50;;;4.07;;
3704;SDS011;1868;48.918;9.438;2023-03-21T06:09:01;6.90;;;4.17;;
3704;SDS011;1868;48.918;9.438;2023-03-21T06:11:31;4.00;;;3.70;;
3704;SDS011;1868;48.918;9.438;2023-03-21T06:14:19;4.10;;;3.80;;
3704;SDS011;1868;48.918;9.438;2023-03-21T06:17:08;4.40;;;4.00;;
3704;SDS011;1868;48.918;9.438;2023-03-21T06:19:43;4.80;;;3.57;;
3704;SDS011;1868;48.918;9.438;2023-03-21T06:22:20;4.30;;;3.90;;
3704;SDS011;1868;48.918;9.438;2023-03-21T06:24:49;6.00;;;4.77;;
3704;SDS011;1868;48.918;9.438;2023-03-21T06:27:18;6.53;;;5.37;;
3704;SDS011;1868;48.918;9.438;2023-03-21T06:29:52;7.77;;;5.80;;
3704;SDS011;1868;48.918;9.438;2023-03-21T06:32:21;8.23;;;6.30;;
3704;SDS011;1868;48.918;9.438;2023-03-21T06:34:54;8.17;;;6.17;;
3704;SDS011;1868;48.918;9.438;2023-03-21T06:37:23;10.50;;;6.03;;
3704;SDS011;1868;48.918;9.438;2023-03-21T06:39:54;5.97;;;5.00;;
3704;SDS011;1868;48.918;9.438;2023-03-21T06:42:24;6.93;;;4.70;;
3704;SDS011;1868;48.918;9.438;2023-03-21T06:44:58;7.37;;;4.23;;
3704;SDS011;1868;48.918;9.438;2023-03-21T06:47:28;4.83;;;4.30;;
3704;SDS011;1868;48.918;9.438;2023-03-21T06:49:57;5.93;;;3.77;;
3704;SDS011;1868;48.918;9.438;2023-03-21T06:52:26;3.93;;;3.40;;
3704;SDS011;1868;48.918;9.438;2023-03-21T06:54:55;8.30;;;4.53;;
3704;SDS011;1868;48.918;9.438;2023-03-21T06:57:24;7.03;;;4.10;;
3704;SDS011;1868;48.918;9.438;2023-03-21T06:59:53;4.10;;;3.67;;
3704;SDS011;1868;48.918;9.438;2023-03-21T07:02:22;7.60;;;4.30;;
3704;SDS011;1868;48.918;9.438;2023-03-21T07:05:00;3.90;;;3.50;;
3704;SDS011;1868;48.918;9.438;2023-03-21T07:07:29;4.20;;;3.80;;
3704;SDS011;1868;48.918;9.438;2023-03-21T07:09:59;4.30;;;3.23;;
3704;SDS011;1868;48.918;9.438;2023-03-21T07:12:31;7.00;;;4.37;;
3704;SDS011;1868;48.918;9.438;2023-03-21T07:15:14;5.53;;;4.20;;
3704;SDS011;1868;48.918;9.438;2023-03-21T07:17:44;4.60;;;4.00;;
3704;SDS011;1868;48.918;9.438;2023-03-21T07:20:12;4.97;;;3.70;;
3704;SDS011;1868;48.918;9.438;2023-03-21T07:22:41;7.93;;;3.30;;
3704;SDS011;1868;48.918;9.438;2023-03-21T07:25:11;4.30;;;3.90;;
3704;SDS011;1868;48.918;9.438;2023-03-21T07:27:39;7.30;;;3.90;;
3704;SDS011;1868;48.918;9.438;2023-03-21T07:30:08;6.90;;;3.80;;
3704;SDS011;1868;48.918;9.438;2023-03-21T07:32:37;4.17;;;3.50;;
3704;SDS011;1868;48.918;9.438;2023-03-21T07:35:09;4.70;;;3.57;;
3704;SDS011;1868;48.918;9.438;2023-03-21T07:37:40;6.80;;;3.70;;
3704;SDS011;1868;48.918;9.438;2023-03-21T07:40:14;6.63;;;4.17;;
3704;SDS011;1868;48.918;9.438;2023-03-21T07:42:43;4.93;;;4.40;;
3704;SDS011;1868;48.918;9.438;2023-03-21T07:45:12;4.13;;;3.80;;
3704;SDS011;1868;48.918;9.438;2023-03-21T07:47:46;5.30;;;4.47;;
3704;SDS011;1868;48.918;9.438;2023-03-21T07:50:15;4.13;;;3.73;;
3704;SDS011;1868;48.918;9.438;2023-03-21T07:52:43;3.80;;;3.30;;
3704;SDS011;1868;48.918;9.438;2023-03-21T07:55:11;7.93;;;3.53;;
3704;SDS011;1868;48.918;9.438;2023-03-21T07:57:41;4.37;;;3.57;;
3704;SDS011;1868;48.918;9.438;2023-03-21T08:00:10;4.93;;;3.67;;
3704;SDS011;1868;48.918;9.438;2023-03-21T08:02:48;4.20;;;2.93;;
3704;SDS011;1868;48.918;9.438;2023-03-21T08:05:23;3.37;;;2.93;;
3704;SDS011;1868;48.918;9.438;2023-03-21T08:07:53;4.73;;;3.30;;
3704;SDS011;1868;48.918;9.438;2023-03-21T08:10:22;3.43;;;3.13;;
3704;SDS011;1868;48.918;9.438;2023-03-21T08:12:52;3.30;;;3.00;;
3704;SDS011;1868;48.918;9.438;2023-03-21T08:15:20;4.17;;;2.50;;
3704;SDS011;1868;48.918;9.438;2023-03-21T08:17:49;3.17;;;2.83;;
3704;SDS011;1868;48.918;9.438;2023-03-21T08:20:18;4.57;;;2.83;;
3704;SDS011;1868;48.918;9.438;2023-03-21T08:22:48;4.93;;;3.03;;
3704;SDS011;1868;48.918;9.438;2023-03-21T08:25:18;5.33;;;4.10;;
3704;SDS011;1868;48.918;9.438;2023-03-21T08:27:49;2.90;;;2.70;;
3704;SDS011;1868;48.918;9.438;2023-03-21T08:30:20;2.50;;;2.20;;
3704;SDS011;1868;48.918;9.438;2023-03-21T08:32:54;4.97;;;2.47;;
3704;SDS011;1868;48.918;9.438;2023-03-21T08:35:27;3.63;;;2.83;;
3704;SDS011;1868;48.918;9.438;2023-03-21T08:37:55;2.60;;;2.17;;
3704;SDS011;1868;48.918;9.438;2023-03-21T08:40:24;2.37;;;2.17;;
3704;SDS011;1868;48.918;9.438;2023-03-21T08:42:52;1.90;;;1.23;;
3704;SDS011;1868;48.918;9.438;2023-03-21T08:45:22;2.13;;;1.53;;
3704;SDS011;1868;48.918;9.438;2023-03-21T08:47:52;2.00;;;1.80;;
3704;SDS011;1868;48.918;9.438;2023-03-21T08:50:22;2.80;;;1.47;;
3704;SDS011;1868;48.918;9.438;2023-03-21T08:52:54;2.00;;;1.60;;
3704;SDS011;1868;48.918;9.438;2023-03-21T08:55:23;2.47;;;1.57;;
3704;SDS011;1868;48.918;9.438;2023-03-21T08:57:51;2.20;;;1.60;;
3704;SDS011;1868;48.918;9.438;2023-03-21T09:00:20;2.30;;;1.77;;
3704;SDS011;1868;48.918;9.438;2023-03-21T09:02:50;0.93;;;0.93;;
3704;SDS011;1868;48.918;9.438;2023-03-21T09:05:20;1.73;;;1.33;;
3704;SDS011;1868;48.918;9.438;2023-03-21T09:07:51;1.43;;;1.33;;
3704;SDS011;1868;48.918;9.438;2023-03-21T09:10:20;1.33;;;1.33;;
3704;SDS011;1868;48.918;9.438;2023-03-21T09:12:50;1.47;;;1.37;;
3704;SDS011;1868;48.918;9.438;2023-03-21T09:15:20;1.17;;;1.00;;
3704;SDS011;1868;48.918;9.438;2023-03-21T09:17:54;0.80;;;0.80;;
3704;SDS011;1868;48.918;9.438;2023-03-21T09:20:25;1.77;;;0.87;;
3704;SDS011;1868;48.918;9.438;2023-03-21T09:22:58;2.00;;;1.07;;
3704;SDS011;1868;48.918;9.438;2023-03-21T09:25:27;1.10;;;1.00;;
3704;SDS011;1868;48.918;9.438;2023-03-21T09:27:56;0.93;;;0.93;;
3704;SDS011;1868;48.918;9.438;2023-03-21T09:30:26;1.80;;;1.17;;
3704;SDS011;1868;48.918;9.438;2023-03-21T09:32:57;1.50;;;1.07;;
3704;SDS011;1868;48.918;9.438;2023-03-21T09:35:27;2.67;;;0.90;;
3704;SDS011;1868;48.918;9.438;2023-03-21T09:37:55;1.80;;;0.87;;
3704;SDS011;1868;48.918;9.438;2023-03-21T09:40:28;1.30;;;1.20;;
3704;SDS011;1868;48.918;9.438;2023-03-21T09:43:14;1.30;;;1.20;;
3704;SDS011;1868;48.918;9.438;2023-03-21T09:46:01;1.67;;;1.10;;
3704;SDS011;1868;48.918;9.438;2023-03-21T09:48:37;1.30;;;0.90;;
3704;SDS011;1868;48.918;9.438;2023-03-21T09:51:21;2.27;;;1.07;;
3704;SDS011;1868;48.918;9.438;2023-03-21T09:53:54;1.90;;;0.93;;
3704;SDS011;1868;48.918;9.438;2023-03-21T09:56:27;1.10;;;1.10;;
3704;SDS011;1868;48.918;9.438;2023-03-21T09:58:56;1.23;;;1.00;;
3704;SDS011;1868;48.918;9.438;2023-03-21T10:01:28;3.33;;;0.77;;
3704;SDS011;1868;48.918;9.438;2023-03-21T10:04:00;0.80;;;0.80;;
3704;SDS011;1868;48.918;9.438;2023-03-21T10:06:32;1.30;;;1.00;;
3704;SDS011;1868;48.918;9.438;2023-03-21T10:09:06;0.80;;;0.80;;
3704;SDS011;1868;48.918;9.438;2023-03-21T10:11:41;1.23;;;1.00;;
3704;SDS011;1868;48.918;9.438;2023-03-21T10:14:15;0.80;;;0.80;;
3704;SDS011;1868;48.918;9.438;2023-03-21T10:16:50;3.07;;;1.10;;
3704;SDS011;1868;48.918;9.438;2023-03-21T10:19:23;0.97;;;0.97;;
3704;SDS011;1868;48.918;9.438;2023-03-21T10:21:54;1.20;;;1.10;;
3704;SDS011;1868;48.918;9.438;2023-03-21T10:24:28;1.00;;;0.93;;
3704;SDS011;1868;48.918;9.438;2023-03-21T10:27:00;3.63;;;0.90;;
3704;SDS011;1868;48.918;9.438;2023-03-21T10:29:31;1.27;;;0.90;;
3704;SDS011;1868;48.918;9.438;2023-03-21T10:32:10;0.80;;;0.80;;
3704;SDS011;1868;48.918;9.438;2023-03-21T10:34:42;1.20;;;1.20;;
3704;SDS011;1868;48.918;9.438;2023-03-21T10:37:16;2.80;;;1.63;;
3704;SDS011;1868;48.918;9.438;2023-03-21T10:39:44;1.37;;;1.33;;
3704;SDS011;1868;48.918;9.438;2023-03-21T10:42:17;1.23;;;1.13;;
3704;SDS011;1868;48.918;9.438;2023-03-21T10:44:49;1.83;;;1.50;;
3704;SDS011;1868;48.918;9.438;2023-03-21T10:47:22;3.20;;;1.10;;
3704;SDS011;1868;48.918;9.438;2023-03-21T10:49:53;0.90;;;0.80;;
3704;SDS011;1868;48.918;9.438;2023-03-21T10:52:33;3.60;;;1.10;;
3704;SDS011;1868;48.918;9.438;2023-03-21T10:55:06;7.20;;;1.53;;
3704;SDS011;1868;48.918;9.438;2023-03-21T10:57:44;2.30;;;1.20;;
3704;SDS011;1868;48.918;9.438;2023-03-21T11:00:17;1.30;;;1.20;;
3704;SDS011;1868;48.918;9.438;2023-03-21T11:02:50;1.80;;;1.10;;
3704;SDS011;1868;48.918;9.438;2023-03-21T11:05:21;1.10;;;1.10;;
3704;SDS011;1868;48.918;9.438;2023-03-21T11:07:58;1.60;;;1.20;;
3704;SDS011;1868;48.918;9.438;2023-03-21T11:10:31;1.10;;;1.10;;
3704;SDS011;1868;48.918;9.438;2023-03-21T11:13:04;1.27;;;1.20;;
3704;SDS011;1868;48.918;9.438;2023-03-21T11:15:41;1.67;;;1.57;;
3704;SDS011;1868;48.918;9.438;2023-03-21T11:18:21;1.80;;;1.20;;
3704;SDS011;1868;48.918;9.438;2023-03-21T11:20:52;1.00;;;1.00;;
3704;SDS011;1868;48.918;9.438;2023-03-21T11:23:24;2.00;;;1.27;;
3704;SDS011;1868;48.918;9.438;2023-03-21T11:25:55;1.43;;;1.07;;
3704;SDS011;1868;48.918;9.438;2023-03-21T11:28:31;1.37;;;1.27;;
3704;SDS011;1868;48.918;9.438;2023-03-21T11:31:03;3.63;;;1.77;;
3704;SDS011;1868;48.918;9.438;2023-03-21T11:33:36;1.40;;;1.30;;
3704;SDS011;1868;48.918;9.438;2023-03-21T11:36:22;1.87;;;1.50;;
3704;SDS011;1868;48.918;9.438;2023-03-21T11:39:02;2.23;;;1.47;;
3704;SDS011;1868;48.918;9.438;2023-03-21T11:41:50;3.53;;;1.30;;
3704;SDS011;1868;48.918;9.438;2023-03-21T11:44:23;3.03;;;1.30;;
3704;SDS011;1868;48.918;9.438;2023-03-21T11:46:55;1.23;;;1.13;;
3704;SDS011;1868;48.918;9.438;2023-03-21T11:49:26;4.00;;;1.10;;
3704;SDS011;1868;48.918;9.438;2023-03-21T11:52:07;1.70;;;1.30;;
3704;SDS011;1868;48.918;9.438;2023-03-21T11:54:50;1.23;;;1.13;;
3704;SDS011;1868;48.918;9.438;2023-03-21T11:57:46;2.70;;;1.17;;
3704;SDS011;1868;48.918;9.438;2023-03-21T12:00:38;1.43;;;1.00;;
3704;SDS011;1868;48.918;9.438;2023-03-21T12:06:18;1.20;;;1.10;;
3704;SDS011;1868;48.918;9.438;2023-03-21T12:09:07;2.57;;;1.40;;
3704;SDS011;1868;48.918;9.438;2023-03-21T12:11:52;3.33;;;1.07;;
3704;SDS011;1868;48.918;9.438;2023-03-21T12:14:34;2.87;;;1.50;;
3704;SDS011;1868;48.918;9.438;2023-03-21T12:17:16;4.00;;;1.17;;
3704;SDS011;1868;48.918;9.438;2023-03-21T12:20:00;2.33;;;1.40;;
3704;SDS011;1868;48.918;9.438;2023-03-21T12:22:46;1.60;;;1.30;;
3704;SDS011;1868;48.918;9.438;2023-03-21T12:25:28;1.00;;;0.90;;
3704;SDS011;1868;48.918;9.438;2023-03-21T12:28:05;1.90;;;1.20;;
3704;SDS011;1868;48.918;9.438;2023-03-21T12:30:59;1.70;;;1.60;;
3704;SDS011;1868;48.918;9.438;2023-03-21T12:33:40;3.50;;;1.23;;
3704;SDS011;1868;48.918;9.438;2023-03-21T12:36:28;1.93;;;1.50;;
3704;SDS011;1868;48.918;9.438;2023-03-21T12:39:18;1.60;;;1.50;;
3704;SDS011;1868;48.918;9.438;2023-03-21T12:41:57;1.63;;;1.53;;
3704;SDS011;1868;48.918;9.438;2023-03-21T12:44:40;1.80;;;1.37;;
3704;SDS011;1868;48.918;9.438;2023-03-21T12:47:12;3.13;;;1.60;;
3704;SDS011;1868;48.918;9.438;2023-03-21T12:49:45;3.63;;;2.20;;
3704;SDS011;1868;48.918;9.438;2023-03-21T12:52:20;1.70;;;1.60;;
3704;SDS011;1868;48.918;9.438;2023-03-21T12:54:55;4.23;;;2.20;;
3704;SDS011;1868;48.918;9.438;2023-03-21T12:57:29;2.53;;;2.30;;
3704;SDS011;1868;48.918;9.438;2023-03-21T13:00:06;5.23;;;1.93;;
3704;SDS011;1868;48.918;9.438;2023-03-21T13:02:41;2.20;;;1.73;;
3704;SDS011;1868;48.918;9.438;2023-03-21T13:05:15;3.50;;;2.00;;
3704;SDS011;1868;48.918;9.438;2023-03-21T13:07:49;3.77;;;2.10;;
3704;SDS011;1868;48.918;9.438;2023-03-21T13:10:22;3.50;;;2.10;;
3704;SDS011;1868;48.918;9.438;2023-03-21T13:12:57;1.77;;;1.67;;
3704;SDS011;1868;48.918;9.438;2023-03-21T13:15:42;2.20;;;1.60;;
3704;SDS011;1868;48.918;9.438;2023-03-21T13:18:22;2.23;;;1.70;;
3704;SDS011;1868;48.918;9.438;2023-03-21T13:21:06;2.00;;;1.90;;
3704;SDS011;1868;48.918;9.438;2023-03-21T13:23:53;4.10;;;2.30;;
3704;SDS011;1868;48.918;9.438;2023-03-21T13:26:37;1.97;;;1.70;;
3704;SDS011;1868;48.918;9.438;2023-03-21T13:29:11;1.97;;;1.87;;
3704;SDS011;1868;48.918;9.438;2023-03-21T13:31:47;2.23;;;2.03;;
3704;SDS011;1868;48.918;9.438;2023-03-21T13:34:20;8.07;;;2.20;;
3704;SDS011;1868;48.918;9.438;2023-03-21T13:36:50;2.37;;;2.17;;
3704;SDS011;1868;48.918;9.438;2023-03-21T13:39:20;4.23;;;2.27;;
3704;SDS011;1868;48.918;9.438;2023-03-21T13:41:54;1.40;;;1.40;;
3704;SDS011;1868;48.918;9.438;2023-03-21T13:44:31;1.63;;;1.40;;
3704;SDS011;1868;48.918;9.438;2023-03-21T13:47:21;2.13;;;2.03;;
3704;SDS011;1868;48.918;9.438;2023-03-21T13:50:19;2.80;;;2.10;;
3704;SDS011;1868;48.918;9.438;2023-03-21T13:53:10;7.83;;;2.10;;
3704;SDS011;1868;48.918;9.438;2023-03-21T13:58:54;1.80;;;1.70;;
3704;SDS011;1868;48.918;9.438;2023-03-21T14:01:30;3.57;;;2.30;;
3704;SDS011;1868;48.918;9.438;2023-03-21T14:04:10;1.80;;;1.70;;
3704;SDS011;1868;48.918;9.438;2023-03-21T14:06:44;9.07;;;2.93;;
3704;SDS011;1868;48.918;9.438;2023-03-21T14:09:18;6.83;;;2.20;;
3704;SDS011;1868;48.918;9.438;2023-03-21T14:11:52;2.00;;;1.77;;
3704;SDS011;1868;48.918;9.438;2023-03-21T14:14:34;5.50;;;2.80;;
3704;SDS011;1868;48.918;9.438;2023-03-21T14:17:10;1.70;;;1.43;;
3704;SDS011;1868;48.918;9.438;2023-03-21T14:19:39;2.40;;;2.20;;
3704;SDS011;1868;48.918;9.438;2023-03-21T14:22:09;1.83;;;1.73;;
3704;SDS011;1868;48.918;9.438;2023-03-21T14:24:45;5.13;;;2.20;;
3704;SDS011;1868;48.918;9.438;2023-03-21T14:27:16;3.53;;;2.57;;
3704;SDS011;1868;48.918;9.438;2023-03-21T14:29:47;3.23;;;2.60;;
3704;SDS011;1868;48.918;9.438;2023-03-21T14:32:20;2.37;;;2.03;;
3704;SDS011;1868;48.918;9.438;2023-03-21T14:34:52;3.57;;;2.50;;
3704;SDS011;1868;48.918;9.438;2023-03-21T14:37:26;3.43;;;2.60;;
3704;SDS011;1868;48.918;9.438;2023-03-21T14:39:58;7.07;;;1.83;;
3704;SDS011;1868;48.918;9.438;2023-03-21T14:42:31;8.10;;;2.60;;
3704;SDS011;1868;48.918;9.438;2023-03-21T14:45:13;2.70;;;2.40;;
3704;SDS011;1868;48.918;9.438;2023-03-21T14:47:56;5.30;;;2.60;;
3704;SDS011;1868;48.918;9.438;2023-03-21T14:50:28;4.23;;;2.37;;
3704;SDS011;1868;48.918;9.438;2023-03-21T14:53:04;4.73;;;2.03;;
3704;SDS011;1868;48.918;9.438;2023-03-21T14:55:40;2.10;;;2.00;;
3704;SDS011;1868;48.918;9.438;2023-03-21T14:58:12;2.20;;;2.07;;
3704;SDS011;1868;48.918;9.438;2023-03-21T15:00:45;3.50;;;1.87;;
3704;SDS011;1868;48.918;9.438;2023-03-21T15:03:16;3.03;;;1.77;;
3704;SDS011;1868;48.918;9.438;2023-03-21T15:05:47;1.97;;;1.83;;
3704;SDS011;1868;48.918;9.438;2023-03-21T15:08:16;6.00;;;3.07;;
3704;SDS011;1868;48.918;9.438;2023-03-21T15:10:53;2.50;;;2.30;;
3704;SDS011;1868;48.918;9.438;2023-03-21T15:13:33;2.50;;;2.23;;
3704;SDS011;1868;48.918;9.438;2023-03-21T15:16:05;2.30;;;1.90;;
3704;SDS011;1868;48.918;9.438;2023-03-21T15:18:36;2.60;;;1.97;;
3704;SDS011;1868;48.918;9.438;2023-03-21T15:21:06;6.70;;;2.63;;
3704;SDS011;1868;48.918;9.438;2023-03-21T15:23:39;6.20;;;2.20;;
3704;SDS011;1868;48.918;9.438;2023-03-21T15:26:12;1.97;;;1.70;;
3704;SDS011;1868;48.918;9.438;2023-03-21T15:28:43;4.07;;;2.07;;
3704;SDS011;1868;48.918;9.438;2023-03-21T15:31:16;3.50;;;2.50;;
3704;SDS011;1868;48.918;9.438;2023-03-21T15:33:46;3.63;;;1.97;;
3704;SDS011;1868;48.918;9.438;2023-03-21T15:36:17;2.90;;;2.20;;
3704;SDS011;1868;48.918;9.438;2023-03-21T15:38:48;3.27;;;2.40;;
3704;SDS011;1868;48.918;9.438;2023-03-21T15:41:27;2.40;;;2.03;;
3704;SDS011;1868;48.918;9.438;2023-03-21T15:44:01;4.10;;;2.27;;
3704;SDS011;1868;48.918;9.438;2023-03-21T15:46:42;2.73;;;2.40;;
3704;SDS011;1868;48.918;9.438;2023-03-21T15:49:17;3.03;;;2.00;;
3704;SDS011;1868;48.918;9.438;2023-03-21T15:51:51;4.70;;;2.63;;
3704;SDS011;1868;48.918;9.438;2023-03-21T15:54:25;3.07;;;2.10;;
3704;SDS011;1868;48.918;9.438;2023-03-21T15:56:56;4.70;;;2.10;;
3704;SDS011;1868;48.918;9.438;2023-03-21T15:59:31;2.60;;;2.00;;
3704;SDS011;1868;48.918;9.438;2023-03-21T16:02:03;3.40;;;2.07;;
3704;SDS011;1868;48.918;9.438;2023-03-21T16:04:32;2.00;;;1.80;;
3704;SDS011;1868;48.918;9.438;2023-03-21T16:07:22;2.40;;;1.90;;
3704;SDS011;1868;48.918;9.438;2023-03-21T16:09:56;4.87;;;2.13;;